.
WxDataArchive / Data Records for 2010-04-21
2010-04-20 April 2010 2010-04-22

Data Records for Wednesday, 21 April 2010

Time	Temp	Chill	HIndex	Humid	Dewpt	 Wind 	HiWind	WindDir	Rain 	Barom 
-----	----	-----	------	-----	-----	------	------	-------	-----	----- 
00:00	46.2	46.2	46.2	68	36.2	0	0	---	0.00	29.901 
00:05	46.2	46.2	46.2	68	36.2	0	0	---	0.00	29.901 
00:10	46.1	46.1	46.1	68	36.1	0	0	---	0.00	29.901 
00:15	46.1	46.1	46.1	68	36.1	0	0	---	0.00	29.898 
00:20	46.0	46.0	46.0	69	36.4	0	0	---	0.00	29.898 
00:25	45.8	45.8	45.8	69	36.2	0	0	---	0.00	29.898 
00:30	45.7	45.7	45.7	70	36.5	0	0	---	0.00	29.900 
00:35	45.5	45.5	45.5	71	36.7	0	0	---	0.00	29.900 
00:40	45.4	45.4	45.4	72	36.9	0	0	---	0.00	29.900 
00:45	45.2	45.2	45.2	72	36.7	0	0	---	0.00	29.896 
00:50	45.1	45.1	45.1	73	37.0	0	0	---	0.00	29.896 
00:55	44.9	44.9	44.9	73	36.8	0	0	---	0.00	29.896 
01:00	44.6	44.6	44.6	74	36.8	0	0	---	0.00	29.897 
01:05	44.5	44.5	44.5	74	36.7	0	0	---	0.00	29.897 
01:10	44.3	44.3	44.3	74	36.5	0	0	---	0.00	29.897 
01:15	44.2	44.2	44.2	75	36.8	0	0	---	0.00	29.895 
01:20	44.1	44.1	44.1	76	37.0	0	0	---	0.00	29.895 
01:25	43.8	43.8	43.8	76	36.7	0	0	---	0.00	29.895 
01:30	43.6	43.6	43.6	77	36.9	0	0	---	0.00	29.891 
01:35	43.5	43.5	43.5	77	36.8	0	0	---	0.00	29.891 
01:40	43.3	43.3	43.3	78	36.9	0	0	---	0.00	29.891 
01:45	43.3	43.3	43.3	79	37.2	0	0	---	0.00	29.892 
01:50	43.2	43.2	43.2	79	37.1	0	0	---	0.00	29.892 
01:55	43.1	43.1	43.1	79	37.0	0	0	---	0.00	29.892 
02:00	42.9	42.9	42.9	80	37.2	0	0	---	0.00	29.887 
02:05	42.8	42.8	42.8	80	37.1	0	0	---	0.00	29.887 
02:10	42.6	42.6	42.6	80	36.9	0	0	---	0.00	29.887 
02:15	42.5	42.5	42.5	80	36.8	0	0	---	0.00	29.880 
02:20	42.3	42.3	42.3	80	36.6	0	0	---	0.00	29.880 
02:25	42.3	42.3	42.3	81	36.9	0	0	---	0.00	29.880 
02:30	42.2	42.2	42.2	81	36.8	0	0	---	0.00	29.875 
02:35	42.2	42.2	42.2	81	36.8	0	0	---	0.00	29.875 
02:40	42.1	42.1	42.1	81	36.7	0	0	---	0.00	29.875 
02:45	42.1	42.1	42.1	82	37.0	0	0	---	0.00	29.874 
02:50	41.9	41.9	41.9	82	36.8	0	0	---	0.00	29.874 
02:55	41.8	41.8	41.8	82	36.7	0	0	---	0.00	29.874 
03:00	41.6	41.6	41.6	83	36.8	0	0	---	0.00	29.868 
03:05	41.6	41.6	41.6	83	36.8	0	0	---	0.00	29.868 
03:10	41.5	41.5	41.5	84	37.0	0	0	---	0.00	29.868 
03:15	41.5	41.5	41.5	84	37.0	0	0	---	0.00	29.863 
03:20	41.3	41.3	41.3	85	37.1	0	0	---	0.00	29.863 
03:25	41.3	41.3	41.3	85	37.1	0	1	202	0.00	29.863 
03:30	41.2	41.2	41.2	85	37.0	0	0	---	0.00	29.863 
03:35	41.2	41.2	41.2	85	37.0	0	0	---	0.00	29.863 
03:40	41.1	41.1	41.1	85	36.9	0	0	---	0.00	29.863 
03:45	40.9	40.9	40.9	85	36.7	0	1	202	0.00	29.861 
03:50	40.9	40.9	40.9	85	36.7	0	0	---	0.00	29.861 
03:55	40.8	40.8	40.8	85	36.6	0	0	---	0.00	29.861 
04:00	40.6	40.6	40.6	85	36.4	0	0	---	0.00	29.860 
04:05	40.5	40.5	40.5	85	36.4	0	0	---	0.00	29.860 
04:10	40.3	40.3	40.3	85	36.2	0	0	---	0.00	29.860 
04:15	40.2	40.2	40.2	86	36.4	0	0	---	0.00	29.859 
04:20	40.1	40.1	40.1	86	36.3	0	0	---	0.00	29.859 
04:25	40.1	40.1	40.1	86	36.3	0	0	---	0.00	29.859 
04:30	39.9	39.9	39.9	86	36.1	0	0	---	0.00	29.859 
04:35	39.8	39.8	39.8	86	36.0	0	0	---	0.00	29.859 
04:40	39.6	39.6	39.6	87	36.1	0	0	---	0.00	29.859 
04:45	39.5	39.5	39.5	87	36.0	0	0	---	0.00	29.857 
04:50	39.5	39.5	39.5	87	36.0	0	0	---	0.00	29.857 
04:55	39.3	39.3	39.3	87	35.8	0	0	---	0.00	29.857 
05:00	39.2	39.2	39.2	87	35.7	0	0	---	0.00	29.851 
05:05	39.2	39.2	39.2	88	35.9	0	0	---	0.00	29.851 
05:10	39.1	39.1	39.1	88	35.9	0	0	---	0.00	29.851 
05:15	38.9	38.9	38.9	88	35.7	0	0	---	0.00	29.855 
05:20	38.9	38.9	38.9	88	35.7	0	0	---	0.00	29.855 
05:25	38.9	38.9	38.9	88	35.7	0	0	---	0.00	29.855 
05:30	38.9	38.9	38.9	88	35.7	0	0	---	0.00	29.849 
05:35	38.9	38.9	38.9	88	35.7	0	0	---	0.00	29.849 
05:40	38.8	38.8	38.8	88	35.6	0	0	---	0.00	29.849 
05:45	38.6	38.6	38.6	88	35.4	0	0	---	0.00	29.849 
05:50	38.5	38.5	38.5	88	35.3	0	0	---	0.00	29.849 
05:55	38.3	38.3	38.3	88	35.1	0	0	---	0.00	29.849 
06:00	38.2	38.2	38.2	88	35.0	0	0	---	0.00	29.851 
06:05	38.0	38.0	38.0	89	35.1	0	0	---	0.00	29.851 
06:10	38.0	38.0	38.0	89	35.1	0	1	202	0.00	29.851 
06:15	38.2	38.2	38.2	89	35.2	0	0	---	0.00	29.860 
06:20	38.2	38.2	38.2	89	35.2	0	0	---	0.00	29.860 
06:25	38.0	38.0	38.0	90	35.3	0	0	---	0.00	29.860 
06:30	37.9	37.9	37.9	89	35.0	0	0	---	0.00	29.856 
06:35	37.8	37.8	37.8	90	35.1	0	0	---	0.00	29.856 
06:40	37.6	37.6	37.6	90	34.9	0	0	---	0.00	29.856 
06:45	37.5	37.5	37.5	90	34.8	0	0	---	0.00	29.861 
06:50	37.3	37.3	37.3	90	34.6	0	0	---	0.00	29.861 
06:55	37.2	37.2	37.2	90	34.5	0	0	---	0.00	29.861 
07:00	37.0	37.0	37.0	90	34.3	0	0	---	0.00	29.866 
07:05	37.0	37.0	37.0	90	34.3	0	0	---	0.00	29.866 
07:10	37.0	37.0	37.0	91	34.6	0	0	---	0.00	29.866 
07:15	37.0	37.0	37.0	91	34.6	0	0	---	0.00	29.870 
07:20	37.0	37.0	37.0	91	34.6	0	0	---	0.00	29.870 
07:25	37.0	37.0	37.0	91	34.6	0	0	---	0.00	29.870 
07:30	37.0	37.0	37.0	91	34.6	0	0	---	0.00	29.871 
07:35	37.0	37.0	37.0	91	34.6	0	0	---	0.00	29.871 
07:40	37.3	37.3	37.3	91	34.9	0	0	---	0.00	29.871 
07:45	37.6	37.6	37.6	92	35.5	0	0	---	0.00	29.879 
07:50	38.0	38.0	38.0	92	35.9	0	0	---	0.00	29.879 
07:55	38.6	38.6	38.6	93	36.8	0	0	---	0.00	29.879 
08:00	39.5	39.5	39.5	92	37.4	0	0	---	0.00	29.880 
08:05	40.2	40.2	40.2	93	38.3	0	0	---	0.00	29.880 
08:10	40.8	40.8	40.8	92	38.7	0	1	338	0.00	29.880 
08:15	41.6	41.6	41.6	92	39.5	0	1	338	0.00	29.883 
08:20	42.3	42.3	42.3	91	39.9	0	1	338	0.00	29.883 
08:25	43.2	43.2	43.2	89	40.2	0	1	338	0.00	29.883 
08:30	44.2	44.2	44.2	86	40.3	0	1	338	0.00	29.881 
08:35	45.1	45.1	45.1	83	40.3	0	1	338	0.00	29.881 
08:40	46.0	46.0	46.0	80	40.2	0	1	338	0.00	29.881 
08:45	46.7	46.7	46.7	77	39.9	0	1	338	0.00	29.876 
08:50	47.6	47.6	47.6	75	40.1	0	1	338	0.00	29.876 
08:55	48.5	48.5	48.5	73	40.2	0	1	338	0.00	29.876 
09:00	49.2	49.2	49.2	70	39.8	0	1	338	0.00	29.872 
09:05	49.9	49.9	49.9	66	39.0	0	2	338	0.00	29.872 
09:10	50.7	50.7	50.7	66	39.8	0	1	338	0.00	29.872 
09:15	51.3	51.3	51.3	65	39.9	0	1	338	0.00	29.874 
09:20	51.9	51.9	51.9	61	38.9	0	2	338	0.00	29.874 
09:25	52.5	52.5	52.5	60	39.0	0	2	338	0.00	29.874 
09:30	53.1	53.1	53.1	58	38.7	1	3	338	0.00	29.873 
09:35	53.5	53.5	53.5	58	39.1	1	3	315	0.00	29.873 
09:40	53.8	53.8	53.8	55	38.0	1	2	315	0.00	29.873 
09:45	54.4	54.4	54.4	54	38.1	0	1	315	0.00	29.874 
09:50	55.0	55.0	55.0	56	39.6	0	2	315	0.00	29.874 
09:55	55.4	55.4	55.4	54	39.0	0	2	315	0.00	29.874 
10:00	56.2	56.2	56.2	53	39.3	0	2	315	0.00	29.869 
10:05	56.7	56.7	56.7	53	39.8	0	2	315	0.00	29.869 
10:10	57.0	57.0	57.0	48	37.5	1	3	315	0.00	29.869 
10:15	57.3	57.3	57.3	47	37.2	1	3	315	0.00	29.871 
10:20	58.0	58.0	58.0	47	37.9	1	2	315	0.00	29.871 
10:25	58.3	58.3	58.3	43	35.9	1	3	315	0.00	29.871 
10:30	58.6	58.6	58.6	42	35.6	1	2	315	0.00	29.871 
10:35	59.0	59.0	59.0	40	34.7	1	2	315	0.00	29.871 
10:40	59.3	59.3	59.3	39	34.3	1	5	270	0.00	29.871 
10:45	59.6	59.6	59.6	39	34.6	1	3	270	0.00	29.867 
10:50	59.9	59.9	59.9	35	32.2	1	3	338	0.00	29.867 
10:55	60.2	60.2	60.2	40	35.8	0	2	338	0.00	29.867 
11:00	60.9	60.9	60.9	40	36.4	1	3	338	0.00	29.867 
11:05	61.2	61.2	61.2	44	39.1	1	2	292	0.00	29.867 
11:10	61.6	61.6	61.6	41	37.7	1	3	292	0.00	29.867 
11:15	61.5	61.5	61.5	36	34.3	1	4	292	0.00	29.869 
11:20	61.6	61.6	61.6	35	33.7	1	5	338	0.00	29.869 
11:25	61.8	61.8	61.8	42	38.5	1	5	315	0.00	29.869 
11:30	62.1	62.1	62.1	36	34.8	2	4	270	0.00	29.867 
11:35	62.4	62.4	62.4	36	35.1	1	3	270	0.00	29.867 
11:40	62.7	62.7	62.7	40	38.0	1	3	315	0.00	29.867 
11:45	63.2	63.2	63.2	35	35.1	1	3	315	0.00	29.862 
11:50	63.4	63.4	63.4	35	35.3	2	5	248	0.00	29.862 
11:55	63.5	63.5	63.5	36	36.1	1	4	248	0.00	29.862 
12:00	63.5	63.5	63.5	33	33.9	1	3	315	0.00	29.858 
12:05	63.5	63.5	63.5	35	35.4	2	5	270	0.00	29.858 
12:10	63.7	63.7	63.7	35	35.5	2	4	270	0.00	29.858 
12:15	63.9	63.9	63.9	33	34.2	1	2	338	0.00	29.858 
12:20	63.9	63.9	63.9	33	34.2	1	5	0	0.00	29.858 
12:25	64.5	64.5	64.5	37	37.6	1	5	338	0.00	29.858 
12:30	65.0	65.0	65.0	34	35.9	1	4	248	0.00	29.854 
12:35	65.2	65.2	65.2	35	36.9	2	5	315	0.00	29.854 
12:40	65.0	65.0	65.0	35	36.7	2	5	338	0.00	29.854 
12:45	65.0	65.0	65.0	33	35.2	1	3	338	0.00	29.848 
12:50	65.5	65.5	65.5	34	36.4	2	5	270	0.00	29.848 
12:55	65.0	65.0	65.0	35	36.7	2	5	338	0.00	29.848 
13:00	65.3	65.3	65.3	32	34.7	2	6	315	0.00	29.844 
13:05	65.6	65.6	65.6	30	33.3	2	5	315	0.00	29.844 
13:10	65.8	65.8	65.8	32	35.1	3	6	270	0.00	29.844 
13:15	66.1	66.1	66.1	30	33.8	1	4	292	0.00	29.842 
13:20	66.6	66.6	66.6	31	35.0	2	5	270	0.00	29.842 
13:25	66.8	66.8	66.8	34	37.5	1	3	270	0.00	29.842 
13:30	67.3	67.3	67.3	35	38.7	1	4	315	0.00	29.839 
13:35	67.1	67.1	67.1	28	32.9	1	5	270	0.00	29.839 
13:40	67.3	67.3	67.3	31	35.6	1	4	0	0.00	29.839 
13:45	67.3	67.3	67.3	29	33.9	1	4	270	0.00	29.837 
13:50	67.3	67.3	67.3	31	35.6	1	3	338	0.00	29.837 
13:55	67.6	67.6	67.6	28	33.3	1	3	338	0.00	29.837 
14:00	67.8	67.8	67.8	34	38.4	0	2	292	0.00	29.827 
14:05	68.1	68.1	68.1	28	33.8	1	4	292	0.00	29.827 
14:10	68.1	68.1	68.1	30	35.5	2	5	292	0.00	29.827 
14:15	68.3	68.3	68.3	28	33.9	1	3	270	0.00	29.824 
14:20	68.4	68.4	68.4	32	37.4	1	3	270	0.00	29.824 
14:25	68.6	68.6	68.6	30	35.9	1	5	338	0.00	29.824 
14:30	68.3	68.3	68.3	29	34.8	3	6	270	0.00	29.824 
14:35	68.3	68.3	68.3	28	33.9	2	4	292	0.00	29.824 
14:40	68.3	68.3	68.3	30	35.7	1	3	315	0.00	29.824 
14:45	68.8	68.8	68.8	32	37.7	2	5	270	0.00	29.822 
14:50	69.1	69.1	69.1	30	36.4	1	4	0	0.00	29.822 
14:55	69.4	69.4	69.4	28	34.9	2	4	270	0.00	29.822 
15:00	69.3	69.3	69.3	28	34.8	1	4	270	0.00	29.816 
15:05	69.3	69.3	69.3	30	36.5	1	4	315	0.00	29.816 
15:10	68.9	68.9	68.9	28	34.4	1	3	315	0.00	29.816 
15:15	68.9	68.9	68.9	33	38.6	1	4	0	0.00	29.811 
15:20	69.3	69.3	69.3	31	37.4	1	4	315	0.00	29.811 
15:25	69.8	69.8	69.8	28	35.2	1	3	270	0.00	29.811 
15:30	70.1	70.1	70.1	28	35.5	2	6	270	0.00	29.809 
15:35	70.6	70.6	70.6	31	38.5	1	4	248	0.00	29.809 
15:40	70.9	70.9	70.9	28	36.2	1	4	248	0.00	29.809 
15:45	70.8	70.8	70.8	28	36.1	2	6	270	0.00	29.804 
15:50	70.4	70.4	70.4	32	39.1	1	6	315	0.00	29.804 
15:55	70.4	70.4	70.4	28	35.7	2	5	270	0.00	29.804 
16:00	70.4	70.4	70.4	27	34.8	1	4	270	0.00	29.800 
16:05	70.3	70.3	70.3	28	35.6	0	2	22	0.00	29.800 
16:10	70.1	70.1	70.1	28	35.5	1	3	292	0.00	29.800 
16:15	70.3	70.3	70.3	27	34.7	2	5	270	0.00	29.799 
16:20	69.8	69.8	69.8	28	35.2	1	5	270	0.00	29.799 
16:25	68.6	68.6	68.6	28	34.2	1	4	292	0.00	29.799 
16:30	68.9	68.9	68.9	29	35.3	1	3	292	0.00	29.795 
16:35	68.8	68.8	68.8	28	34.4	1	3	338	0.00	29.795 
16:40	68.4	68.4	68.4	28	34.0	1	4	248	0.00	29.795 
16:45	69.1	69.1	69.1	30	36.4	2	4	292	0.00	29.795 
16:50	69.9	69.9	69.9	28	35.3	2	4	270	0.00	29.795 
16:55	70.4	70.4	70.4	27	34.8	2	4	292	0.00	29.795 
17:00	70.6	70.6	70.6	27	35.0	2	7	270	0.00	29.793 
17:05	70.1	70.1	70.1	27	34.6	2	6	270	0.00	29.793 
17:10	69.1	69.1	69.1	27	33.7	2	4	270	0.00	29.793 
17:15	68.4	68.4	68.4	27	33.1	2	4	270	0.00	29.795 
17:20	68.6	68.6	68.6	27	33.3	1	3	270	0.00	29.795 
17:25	69.4	69.4	69.4	27	34.0	2	4	270	0.00	29.795 
17:30	69.8	69.8	69.8	29	36.1	1	4	292	0.00	29.791 
17:35	69.8	69.8	69.8	27	34.3	1	4	338	0.00	29.791 
17:40	69.9	69.9	69.9	26	33.4	2	6	338	0.00	29.791 
17:45	69.9	69.9	69.9	28	35.3	2	5	338	0.00	29.792 
17:50	69.9	69.9	69.9	28	35.3	2	5	270	0.00	29.792 
17:55	68.9	68.9	68.9	29	35.3	1	3	338	0.00	29.792 
18:00	68.1	68.1	68.1	30	35.5	2	5	315	0.00	29.795 
18:05	67.8	67.8	67.8	30	35.2	1	3	270	0.00	29.795 
18:10	67.3	67.3	67.3	30	34.8	1	3	292	0.00	29.795 
18:15	66.9	66.9	66.9	31	35.3	1	3	270	0.00	29.798 
18:20	66.8	66.8	66.8	31	35.2	1	3	270	0.00	29.798 
18:25	66.9	66.9	66.9	31	35.3	0	2	270	0.00	29.798 
18:30	67.3	67.3	67.3	30	34.8	0	3	270	0.00	29.797 
18:35	67.4	67.4	67.4	30	34.9	0	2	315	0.00	29.797 
18:40	67.6	67.6	67.6	29	34.2	2	5	315	0.00	29.797 
18:45	67.6	67.6	67.6	30	35.1	1	4	315	0.00	29.796 
18:50	67.4	67.4	67.4	28	33.2	2	5	292	0.00	29.796 
18:55	67.4	67.4	67.4	28	33.2	1	3	315	0.00	29.796 
19:00	67.3	67.3	67.3	29	33.9	1	4	315	0.00	29.796 
19:05	66.9	66.9	66.9	29	33.6	2	5	338	0.00	29.796 
19:10	66.9	66.9	66.9	29	33.6	2	4	292	0.00	29.796 
19:15	66.6	66.6	66.6	29	33.3	2	4	315	0.00	29.796 
19:20	66.4	66.4	66.4	30	34.0	1	5	315	0.00	29.796 
19:25	66.3	66.3	66.3	30	33.9	1	2	292	0.00	29.796 
19:30	66.0	66.0	66.0	30	33.7	1	3	338	0.00	29.797 
19:35	65.8	65.8	65.8	30	33.5	1	4	315	0.00	29.797 
19:40	65.5	65.5	65.5	31	34.1	0	2	315	0.00	29.797 
19:45	65.3	65.3	65.3	32	34.7	0	2	315	0.00	29.801 
19:50	65.0	65.0	65.0	33	35.2	0	3	292	0.00	29.801 
19:55	64.7	64.7	64.7	34	35.7	0	2	292	0.00	29.801 
20:00	64.3	64.3	64.3	33	34.6	1	4	292	0.00	29.802 
20:05	64.2	64.2	64.2	34	35.2	0	2	338	0.00	29.802 
20:10	63.7	63.7	63.7	34	34.8	0	1	338	0.00	29.802 
20:15	63.4	63.4	63.4	35	35.3	0	1	338	0.00	29.800 
20:20	63.1	63.1	63.1	35	35.0	0	2	338	0.00	29.800 
20:25	62.9	62.9	62.9	35	34.8	0	1	338	0.00	29.800 
20:30	62.6	62.6	62.6	37	36.0	0	2	338	0.00	29.798 
20:35	62.1	62.1	62.1	38	36.2	0	1	338	0.00	29.798 
20:40	61.6	61.6	61.6	38	35.7	0	1	338	0.00	29.798 
20:45	61.3	61.3	61.3	39	36.1	0	1	338	0.00	29.802 
20:50	61.0	61.0	61.0	40	36.5	0	1	338	0.00	29.802 
20:55	60.7	60.7	60.7	40	36.2	0	1	338	0.00	29.802 
21:00	60.5	60.5	60.5	41	36.7	0	0	---	0.00	29.808 
21:05	60.2	60.2	60.2	41	36.4	0	1	338	0.00	29.808 
21:10	59.9	59.9	59.9	41	36.1	0	0	---	0.00	29.808 
21:15	59.6	59.6	59.6	42	36.5	0	0	---	0.00	29.804 
21:20	59.3	59.3	59.3	43	36.8	0	0	---	0.00	29.804 
21:25	58.9	58.9	58.9	44	37.0	0	1	338	0.00	29.804 
21:30	58.4	58.4	58.4	44	36.6	0	0	---	0.00	29.807 
21:35	58.1	58.1	58.1	45	36.9	0	0	---	0.00	29.807 
21:40	57.5	57.5	57.5	46	36.9	0	0	---	0.00	29.807 
21:45	57.2	57.2	57.2	47	37.2	0	0	---	0.00	29.810 
21:50	57.0	57.0	57.0	48	37.5	0	0	---	0.00	29.810 
21:55	56.9	56.9	56.9	48	37.4	0	0	---	0.00	29.810 
22:00	56.7	56.7	56.7	49	37.8	0	0	---	0.00	29.810 
22:05	56.5	56.5	56.5	49	37.6	0	0	---	0.00	29.810 
22:10	56.0	56.0	56.0	50	37.6	0	0	---	0.00	29.810 
22:15	55.7	55.7	55.7	50	37.3	0	0	---	0.00	29.807 
22:20	55.1	55.1	55.1	52	37.8	0	0	---	0.00	29.807 
22:25	54.7	54.7	54.7	52	37.4	0	0	---	0.00	29.807 
22:30	54.2	54.2	54.2	53	37.4	0	0	---	0.00	29.806 
22:35	53.6	53.6	53.6	54	37.4	0	0	---	0.00	29.806 
22:40	53.2	53.2	53.2	56	37.9	0	0	---	0.00	29.806 
22:45	52.6	52.6	52.6	56	37.4	0	0	---	0.00	29.805 
22:50	52.2	52.2	52.2	58	37.9	0	0	---	0.00	29.805 
22:55	51.9	51.9	51.9	59	38.0	0	0	---	0.00	29.805 
23:00	51.4	51.4	51.4	60	38.0	0	0	---	0.00	29.805 
23:05	51.1	51.1	51.1	61	38.1	0	0	---	0.00	29.805 
23:10	50.7	50.7	50.7	63	38.6	0	0	---	0.00	29.805 
23:15	50.1	50.1	50.1	65	38.8	0	0	---	0.00	29.798 
23:20	49.6	49.6	49.6	65	38.3	0	0	---	0.00	29.798 
23:25	49.4	49.4	49.4	66	38.5	0	0	---	0.00	29.798 
23:30	48.9	48.9	48.9	67	38.4	0	0	---	0.00	29.806 
23:35	48.8	48.8	48.8	68	38.7	0	0	---	0.00	29.806 
23:40	48.5	48.5	48.5	68	38.4	0	0	---	0.00	29.806 
23:45	48.3	48.3	48.3	69	38.6	0	0	---	0.00	29.803 
23:50	48.3	48.3	48.3	70	39.0	0	0	---	0.00	29.803 
23:55	48.0	48.0	48.0	70	38.7	0	0	---	0.00	29.803 

CoCoRaHS
IN-AL-39
A2 Web Hosting
Creative Commons License
GoDaddy
search engine by freefind advanced

loaded 2018-11-20 08:30:00 • last modified 2010-11-18 10:43:29
Privacy PolicyDisclaimer
• wx.awcolley.com is powered by PmWiki v.2002016 •
• all content (unless otherwise noted) © 2018 A W Colley